sensor_id;sensor_type;location;lat;lon;timestamp;P1;durP1;ratioP1;P2;durP2;ratioP2
79017;SDS011;69817;44.694;37.774;2023-05-07T00:00:56;12.20;;;3.40;;
79017;SDS011;69817;44.694;37.774;2023-05-07T00:02:01;9.23;;;2.53;;
79017;SDS011;69817;44.694;37.774;2023-05-07T00:03:04;10.43;;;3.00;;
79017;SDS011;69817;44.694;37.774;2023-05-07T00:04:07;11.60;;;3.80;;
79017;SDS011;69817;44.694;37.774;2023-05-07T00:05:09;10.85;;;3.08;;
79017;SDS011;69817;44.694;37.774;2023-05-07T00:06:11;17.73;;;3.30;;
79017;SDS011;69817;44.694;37.774;2023-05-07T00:07:13;11.60;;;3.22;;
79017;SDS011;69817;44.694;37.774;2023-05-07T00:08:16;10.40;;;3.00;;
79017;SDS011;69817;44.694;37.774;2023-05-07T00:09:18;13.35;;;3.30;;
79017;SDS011;69817;44.694;37.774;2023-05-07T00:10:20;8.38;;;2.97;;
79017;SDS011;69817;44.694;37.774;2023-05-07T00:11:22;11.73;;;2.95;;
79017;SDS011;69817;44.694;37.774;2023-05-07T00:12:23;11.93;;;3.00;;
79017;SDS011;69817;44.694;37.774;2023-05-07T00:13:26;10.18;;;2.80;;
79017;SDS011;69817;44.694;37.774;2023-05-07T00:14:28;12.82;;;3.15;;
79017;SDS011;69817;44.694;37.774;2023-05-07T00:15:30;9.07;;;2.80;;
79017;SDS011;69817;44.694;37.774;2023-05-07T00:16:32;11.25;;;3.10;;
79017;SDS011;69817;44.694;37.774;2023-05-07T00:17:34;10.38;;;3.08;;
79017;SDS011;69817;44.694;37.774;2023-05-07T00:18:36;11.18;;;3.20;;
79017;SDS011;69817;44.694;37.774;2023-05-07T00:19:38;11.65;;;3.20;;
79017;SDS011;69817;44.694;37.774;2023-05-07T00:20:40;12.73;;;2.67;;
79017;SDS011;69817;44.694;37.774;2023-05-07T00:21:42;11.35;;;2.75;;
79017;SDS011;69817;44.694;37.774;2023-05-07T00:22:43;8.18;;;2.45;;
79017;SDS011;69817;44.694;37.774;2023-05-07T00:23:46;11.07;;;3.28;;
79017;SDS011;69817;44.694;37.774;2023-05-07T00:24:47;9.73;;;2.97;;
79017;SDS011;69817;44.694;37.774;2023-05-07T00:25:49;9.23;;;3.03;;
79017;SDS011;69817;44.694;37.774;2023-05-07T00:26:51;12.25;;;2.75;;
79017;SDS011;69817;44.694;37.774;2023-05-07T00:27:54;10.07;;;2.95;;
79017;SDS011;69817;44.694;37.774;2023-05-07T00:28:56;9.98;;;3.00;;
79017;SDS011;69817;44.694;37.774;2023-05-07T00:29:58;11.13;;;2.92;;
79017;SDS011;69817;44.694;37.774;2023-05-07T00:31:00;11.90;;;3.05;;
79017;SDS011;69817;44.694;37.774;2023-05-07T00:32:01;8.30;;;2.80;;
79017;SDS011;69817;44.694;37.774;2023-05-07T00:33:03;10.50;;;2.70;;
79017;SDS011;69817;44.694;37.774;2023-05-07T00:34:05;8.70;;;2.70;;
79017;SDS011;69817;44.694;37.774;2023-05-07T00:35:07;11.38;;;3.05;;
79017;SDS011;69817;44.694;37.774;2023-05-07T00:36:09;7.78;;;2.50;;
79017;SDS011;69817;44.694;37.774;2023-05-07T00:37:11;12.05;;;2.80;;
79017;SDS011;69817;44.694;37.774;2023-05-07T00:38:13;9.80;;;2.63;;
79017;SDS011;69817;44.694;37.774;2023-05-07T00:39:15;7.97;;;2.42;;
79017;SDS011;69817;44.694;37.774;2023-05-07T00:40:17;9.82;;;2.60;;
79017;SDS011;69817;44.694;37.774;2023-05-07T00:41:19;9.18;;;2.70;;
79017;SDS011;69817;44.694;37.774;2023-05-07T00:42:21;10.77;;;2.67;;
79017;SDS011;69817;44.694;37.774;2023-05-07T00:43:23;7.88;;;2.72;;
79017;SDS011;69817;44.694;37.774;2023-05-07T00:44:25;11.73;;;2.78;;
79017;SDS011;69817;44.694;37.774;2023-05-07T00:45:28;11.57;;;2.50;;
79017;SDS011;69817;44.694;37.774;2023-05-07T00:46:31;12.80;;;3.08;;
79017;SDS011;69817;44.694;37.774;2023-05-07T00:47:34;11.68;;;2.65;;
79017;SDS011;69817;44.694;37.774;2023-05-07T00:48:36;9.23;;;2.25;;
79017;SDS011;69817;44.694;37.774;2023-05-07T00:49:38;9.80;;;2.38;;
79017;SDS011;69817;44.694;37.774;2023-05-07T00:50:42;10.25;;;3.15;;
79017;SDS011;69817;44.694;37.774;2023-05-07T00:51:45;10.48;;;2.58;;
79017;SDS011;69817;44.694;37.774;2023-05-07T00:52:47;8.95;;;2.70;;
79017;SDS011;69817;44.694;37.774;2023-05-07T00:53:49;8.57;;;2.97;;
79017;SDS011;69817;44.694;37.774;2023-05-07T00:54:51;7.85;;;2.63;;
79017;SDS011;69817;44.694;37.774;2023-05-07T00:55:53;7.72;;;2.40;;
79017;SDS011;69817;44.694;37.774;2023-05-07T00:57:01;13.07;;;2.78;;
79017;SDS011;69817;44.694;37.774;2023-05-07T00:58:04;7.82;;;2.22;;
79017;SDS011;69817;44.694;37.774;2023-05-07T00:59:07;9.10;;;2.72;;
79017;SDS011;69817;44.694;37.774;2023-05-07T01:00:10;11.65;;;2.75;;
79017;SDS011;69817;44.694;37.774;2023-05-07T01:01:14;7.22;;;2.63;;
79017;SDS011;69817;44.694;37.774;2023-05-07T01:02:19;9.32;;;2.50;;
79017;SDS011;69817;44.694;37.774;2023-05-07T01:03:21;7.70;;;2.70;;
79017;SDS011;69817;44.694;37.774;2023-05-07T01:04:23;9.95;;;2.30;;
79017;SDS011;69817;44.694;37.774;2023-05-07T01:05:24;7.82;;;2.40;;
79017;SDS011;69817;44.694;37.774;2023-05-07T01:06:28;8.40;;;2.63;;
79017;SDS011;69817;44.694;37.774;2023-05-07T01:07:33;7.28;;;2.58;;
79017;SDS011;69817;44.694;37.774;2023-05-07T01:08:36;8.93;;;2.47;;
79017;SDS011;69817;44.694;37.774;2023-05-07T01:09:40;8.07;;;2.60;;
79017;SDS011;69817;44.694;37.774;2023-05-07T01:10:43;8.65;;;2.50;;
79017;SDS011;69817;44.694;37.774;2023-05-07T01:11:47;8.63;;;2.55;;
79017;SDS011;69817;44.694;37.774;2023-05-07T01:12:50;8.10;;;2.80;;
79017;SDS011;69817;44.694;37.774;2023-05-07T01:13:54;5.32;;;1.88;;
79017;SDS011;69817;44.694;37.774;2023-05-07T01:14:56;8.02;;;2.35;;
79017;SDS011;69817;44.694;37.774;2023-05-07T01:15:59;6.90;;;2.20;;
79017;SDS011;69817;44.694;37.774;2023-05-07T01:17:00;7.18;;;2.47;;
79017;SDS011;69817;44.694;37.774;2023-05-07T01:18:02;7.40;;;2.20;;
79017;SDS011;69817;44.694;37.774;2023-05-07T01:19:09;9.43;;;2.60;;
79017;SDS011;69817;44.694;37.774;2023-05-07T01:20:14;7.90;;;2.42;;
79017;SDS011;69817;44.694;37.774;2023-05-07T01:21:19;7.25;;;2.35;;
79017;SDS011;69817;44.694;37.774;2023-05-07T01:22:32;7.47;;;2.45;;
79017;SDS011;69817;44.694;37.774;2023-05-07T01:23:35;6.47;;;2.55;;
79017;SDS011;69817;44.694;37.774;2023-05-07T01:24:37;11.93;;;2.50;;
79017;SDS011;69817;44.694;37.774;2023-05-07T01:26:43;8.75;;;2.58;;
79017;SDS011;69817;44.694;37.774;2023-05-07T01:27:48;7.63;;;2.60;;
79017;SDS011;69817;44.694;37.774;2023-05-07T01:28:49;8.85;;;2.60;;
79017;SDS011;69817;44.694;37.774;2023-05-07T01:29:51;7.63;;;2.60;;
79017;SDS011;69817;44.694;37.774;2023-05-07T01:30:54;6.45;;;2.42;;
79017;SDS011;69817;44.694;37.774;2023-05-07T01:32:02;7.35;;;2.22;;
79017;SDS011;69817;44.694;37.774;2023-05-07T01:33:09;7.20;;;2.47;;
79017;SDS011;69817;44.694;37.774;2023-05-07T01:34:15;10.25;;;2.60;;
79017;SDS011;69817;44.694;37.774;2023-05-07T01:35:20;10.55;;;2.47;;
79017;SDS011;69817;44.694;37.774;2023-05-07T01:36:26;10.57;;;2.47;;
79017;SDS011;69817;44.694;37.774;2023-05-07T01:37:31;9.25;;;2.20;;
79017;SDS011;69817;44.694;37.774;2023-05-07T01:38:34;6.38;;;2.47;;
79017;SDS011;69817;44.694;37.774;2023-05-07T01:39:37;10.32;;;2.40;;
79017;SDS011;69817;44.694;37.774;2023-05-07T01:40:41;8.68;;;2.40;;
79017;SDS011;69817;44.694;37.774;2023-05-07T01:41:43;8.75;;;2.35;;
79017;SDS011;69817;44.694;37.774;2023-05-07T01:42:46;6.90;;;2.50;;
79017;SDS011;69817;44.694;37.774;2023-05-07T01:43:50;7.82;;;2.03;;
79017;SDS011;69817;44.694;37.774;2023-05-07T01:44:53;9.68;;;2.20;;
79017;SDS011;69817;44.694;37.774;2023-05-07T01:45:55;6.57;;;2.38;;
79017;SDS011;69817;44.694;37.774;2023-05-07T01:46:58;9.32;;;2.63;;
79017;SDS011;69817;44.694;37.774;2023-05-07T01:48:01;7.68;;;2.40;;
79017;SDS011;69817;44.694;37.774;2023-05-07T01:49:04;7.80;;;2.60;;
79017;SDS011;69817;44.694;37.774;2023-05-07T01:50:06;9.52;;;2.50;;
79017;SDS011;69817;44.694;37.774;2023-05-07T01:51:09;7.80;;;2.50;;
79017;SDS011;69817;44.694;37.774;2023-05-07T01:52:11;8.35;;;2.40;;
79017;SDS011;69817;44.694;37.774;2023-05-07T01:53:13;6.60;;;2.08;;
79017;SDS011;69817;44.694;37.774;2023-05-07T01:54:15;9.25;;;2.40;;
79017;SDS011;69817;44.694;37.774;2023-05-07T01:55:17;6.65;;;2.30;;
79017;SDS011;69817;44.694;37.774;2023-05-07T01:56:19;9.27;;;2.42;;
79017;SDS011;69817;44.694;37.774;2023-05-07T01:58:24;10.27;;;2.40;;
79017;SDS011;69817;44.694;37.774;2023-05-07T01:59:26;10.20;;;2.42;;
79017;SDS011;69817;44.694;37.774;2023-05-07T02:00:28;13.90;;;2.55;;
79017;SDS011;69817;44.694;37.774;2023-05-07T02:01:32;8.50;;;2.45;;
79017;SDS011;69817;44.694;37.774;2023-05-07T02:02:34;13.45;;;2.20;;
79017;SDS011;69817;44.694;37.774;2023-05-07T02:03:36;12.32;;;2.40;;
79017;SDS011;69817;44.694;37.774;2023-05-07T02:04:45;13.32;;;2.95;;
79017;SDS011;69817;44.694;37.774;2023-05-07T02:05:48;11.50;;;2.42;;
79017;SDS011;69817;44.694;37.774;2023-05-07T02:07:06;9.50;;;2.42;;
79017;SDS011;69817;44.694;37.774;2023-05-07T02:08:08;10.10;;;2.58;;
79017;SDS011;69817;44.694;37.774;2023-05-07T02:09:11;10.70;;;2.33;;
79017;SDS011;69817;44.694;37.774;2023-05-07T02:10:15;7.95;;;1.90;;
79017;SDS011;69817;44.694;37.774;2023-05-07T02:11:17;10.15;;;2.47;;
79017;SDS011;69817;44.694;37.774;2023-05-07T02:12:19;11.75;;;2.20;;
79017;SDS011;69817;44.694;37.774;2023-05-07T02:13:21;8.55;;;2.10;;
79017;SDS011;69817;44.694;37.774;2023-05-07T02:14:25;11.07;;;2.47;;
79017;SDS011;69817;44.694;37.774;2023-05-07T02:15:27;7.28;;;2.20;;
79017;SDS011;69817;44.694;37.774;2023-05-07T02:16:30;11.88;;;2.05;;
79017;SDS011;69817;44.694;37.774;2023-05-07T02:17:32;9.05;;;1.98;;
79017;SDS011;69817;44.694;37.774;2023-05-07T02:18:34;13.32;;;2.38;;
79017;SDS011;69817;44.694;37.774;2023-05-07T02:19:37;11.30;;;2.17;;
79017;SDS011;69817;44.694;37.774;2023-05-07T02:20:39;6.75;;;2.10;;
79017;SDS011;69817;44.694;37.774;2023-05-07T02:21:41;7.00;;;1.98;;
79017;SDS011;69817;44.694;37.774;2023-05-07T02:22:42;8.77;;;2.05;;
79017;SDS011;69817;44.694;37.774;2023-05-07T02:23:45;9.82;;;2.10;;
79017;SDS011;69817;44.694;37.774;2023-05-07T02:24:46;9.07;;;2.10;;
79017;SDS011;69817;44.694;37.774;2023-05-07T02:25:48;9.30;;;2.05;;
79017;SDS011;69817;44.694;37.774;2023-05-07T02:26:50;9.05;;;2.00;;
79017;SDS011;69817;44.694;37.774;2023-05-07T02:27:52;7.80;;;2.20;;
79017;SDS011;69817;44.694;37.774;2023-05-07T02:28:57;7.20;;;2.17;;
79017;SDS011;69817;44.694;37.774;2023-05-07T02:30:01;14.05;;;2.58;;
79017;SDS011;69817;44.694;37.774;2023-05-07T02:31:03;12.55;;;2.40;;
79017;SDS011;69817;44.694;37.774;2023-05-07T02:32:05;9.60;;;2.20;;
79017;SDS011;69817;44.694;37.774;2023-05-07T02:33:07;6.72;;;1.80;;
79017;SDS011;69817;44.694;37.774;2023-05-07T02:34:09;10.82;;;1.90;;
79017;SDS011;69817;44.694;37.774;2023-05-07T02:35:11;5.22;;;1.95;;
79017;SDS011;69817;44.694;37.774;2023-05-07T02:36:13;6.15;;;1.77;;
79017;SDS011;69817;44.694;37.774;2023-05-07T02:37:25;8.57;;;1.98;;
79017;SDS011;69817;44.694;37.774;2023-05-07T02:38:27;11.40;;;2.40;;
79017;SDS011;69817;44.694;37.774;2023-05-07T02:39:29;9.68;;;2.00;;
79017;SDS011;69817;44.694;37.774;2023-05-07T02:40:31;6.65;;;2.28;;
79017;SDS011;69817;44.694;37.774;2023-05-07T02:41:34;6.72;;;1.73;;
79017;SDS011;69817;44.694;37.774;2023-05-07T02:42:36;8.10;;;2.03;;
79017;SDS011;69817;44.694;37.774;2023-05-07T02:43:38;8.68;;;2.00;;
79017;SDS011;69817;44.694;37.774;2023-05-07T02:44:40;5.63;;;2.10;;
79017;SDS011;69817;44.694;37.774;2023-05-07T02:45:42;5.25;;;1.90;;
79017;SDS011;69817;44.694;37.774;2023-05-07T02:46:44;6.78;;;1.70;;
79017;SDS011;69817;44.694;37.774;2023-05-07T02:47:47;6.70;;;2.10;;
79017;SDS011;69817;44.694;37.774;2023-05-07T02:48:49;8.25;;;2.13;;
79017;SDS011;69817;44.694;37.774;2023-05-07T02:49:52;8.02;;;1.80;;
79017;SDS011;69817;44.694;37.774;2023-05-07T02:50:54;9.00;;;2.20;;
79017;SDS011;69817;44.694;37.774;2023-05-07T02:51:57;8.48;;;2.20;;
79017;SDS011;69817;44.694;37.774;2023-05-07T02:52:59;4.85;;;1.90;;
79017;SDS011;69817;44.694;37.774;2023-05-07T02:54:01;7.85;;;2.10;;
79017;SDS011;69817;44.694;37.774;2023-05-07T02:56:06;7.97;;;2.38;;
79017;SDS011;69817;44.694;37.774;2023-05-07T02:57:08;7.88;;;1.92;;
79017;SDS011;69817;44.694;37.774;2023-05-07T02:58:10;6.72;;;1.85;;
79017;SDS011;69817;44.694;37.774;2023-05-07T02:59:13;6.65;;;2.00;;
79017;SDS011;69817;44.694;37.774;2023-05-07T03:00:17;5.88;;;2.10;;
79017;SDS011;69817;44.694;37.774;2023-05-07T03:01:40;6.35;;;1.67;;
79017;SDS011;69817;44.694;37.774;2023-05-07T03:02:46;11.10;;;1.95;;
79017;SDS011;69817;44.694;37.774;2023-05-07T03:03:48;7.00;;;1.90;;
79017;SDS011;69817;44.694;37.774;2023-05-07T03:04:50;8.27;;;1.92;;
79017;SDS011;69817;44.694;37.774;2023-05-07T03:05:52;6.95;;;1.90;;
79017;SDS011;69817;44.694;37.774;2023-05-07T03:06:54;10.98;;;1.90;;
79017;SDS011;69817;44.694;37.774;2023-05-07T03:07:56;8.82;;;1.95;;
79017;SDS011;69817;44.694;37.774;2023-05-07T03:08:58;8.07;;;2.30;;
79017;SDS011;69817;44.694;37.774;2023-05-07T03:10:00;9.80;;;2.00;;
79017;SDS011;69817;44.694;37.774;2023-05-07T03:11:02;8.88;;;2.00;;
79017;SDS011;69817;44.694;37.774;2023-05-07T03:12:05;8.80;;;2.03;;
79017;SDS011;69817;44.694;37.774;2023-05-07T03:13:07;6.95;;;1.80;;
79017;SDS011;69817;44.694;37.774;2023-05-07T03:14:09;7.40;;;1.80;;
79017;SDS011;69817;44.694;37.774;2023-05-07T03:15:10;9.63;;;2.28;;
79017;SDS011;69817;44.694;37.774;2023-05-07T03:16:13;6.47;;;1.90;;
79017;SDS011;69817;44.694;37.774;2023-05-07T03:17:15;7.10;;;2.08;;
79017;SDS011;69817;44.694;37.774;2023-05-07T03:18:17;5.72;;;1.95;;
79017;SDS011;69817;44.694;37.774;2023-05-07T03:19:19;6.30;;;2.10;;
79017;SDS011;69817;44.694;37.774;2023-05-07T03:20:21;10.70;;;2.10;;
79017;SDS011;69817;44.694;37.774;2023-05-07T03:21:23;6.72;;;2.05;;
79017;SDS011;69817;44.694;37.774;2023-05-07T03:22:25;7.13;;;2.03;;
79017;SDS011;69817;44.694;37.774;2023-05-07T03:23:27;8.50;;;2.05;;
79017;SDS011;69817;44.694;37.774;2023-05-07T03:24:29;11.25;;;2.22;;
79017;SDS011;69817;44.694;37.774;2023-05-07T03:25:31;7.38;;;2.28;;
79017;SDS011;69817;44.694;37.774;2023-05-07T03:26:34;7.32;;;2.10;;
79017;SDS011;69817;44.694;37.774;2023-05-07T03:27:36;6.35;;;2.50;;
79017;SDS011;69817;44.694;37.774;2023-05-07T03:28:38;7.32;;;1.83;;
79017;SDS011;69817;44.694;37.774;2023-05-07T03:29:44;11.10;;;2.20;;
79017;SDS011;69817;44.694;37.774;2023-05-07T03:30:46;10.07;;;2.03;;
79017;SDS011;69817;44.694;37.774;2023-05-07T03:31:48;8.10;;;2.30;;
79017;SDS011;69817;44.694;37.774;2023-05-07T03:32:50;5.90;;;1.95;;
79017;SDS011;69817;44.694;37.774;2023-05-07T03:34:58;7.22;;;2.20;;
79017;SDS011;69817;44.694;37.774;2023-05-07T03:36:01;9.40;;;2.20;;
79017;SDS011;69817;44.694;37.774;2023-05-07T03:37:03;5.40;;;1.85;;
79017;SDS011;69817;44.694;37.774;2023-05-07T03:38:05;8.52;;;2.05;;
79017;SDS011;69817;44.694;37.774;2023-05-07T03:39:10;7.47;;;2.00;;
79017;SDS011;69817;44.694;37.774;2023-05-07T03:40:14;11.10;;;2.20;;
79017;SDS011;69817;44.694;37.774;2023-05-07T03:41:21;12.52;;;2.40;;
79017;SDS011;69817;44.694;37.774;2023-05-07T03:42:23;9.57;;;2.03;;
79017;SDS011;69817;44.694;37.774;2023-05-07T03:43:27;8.27;;;2.10;;
79017;SDS011;69817;44.694;37.774;2023-05-07T03:44:36;8.90;;;2.33;;
79017;SDS011;69817;44.694;37.774;2023-05-07T03:45:38;11.32;;;1.95;;
79017;SDS011;69817;44.694;37.774;2023-05-07T03:47:00;6.07;;;2.00;;
79017;SDS011;69817;44.694;37.774;2023-05-07T03:48:02;11.65;;;1.98;;
79017;SDS011;69817;44.694;37.774;2023-05-07T03:49:04;13.85;;;2.22;;
79017;SDS011;69817;44.694;37.774;2023-05-07T03:50:06;10.88;;;2.10;;
79017;SDS011;69817;44.694;37.774;2023-05-07T03:51:08;8.05;;;2.03;;
79017;SDS011;69817;44.694;37.774;2023-05-07T03:52:11;6.10;;;1.90;;
79017;SDS011;69817;44.694;37.774;2023-05-07T03:53:13;7.80;;;1.85;;
79017;SDS011;69817;44.694;37.774;2023-05-07T03:54:14;18.33;;;2.33;;
79017;SDS011;69817;44.694;37.774;2023-05-07T03:55:19;15.48;;;2.17;;
79017;SDS011;69817;44.694;37.774;2023-05-07T03:56:26;8.10;;;1.85;;
79017;SDS011;69817;44.694;37.774;2023-05-07T03:57:30;8.95;;;1.80;;
79017;SDS011;69817;44.694;37.774;2023-05-07T03:59:39;17.02;;;2.50;;
79017;SDS011;69817;44.694;37.774;2023-05-07T04:00:43;12.13;;;2.08;;
79017;SDS011;69817;44.694;37.774;2023-05-07T04:01:55;11.23;;;2.60;;
79017;SDS011;69817;44.694;37.774;2023-05-07T04:02:59;11.95;;;2.60;;
79017;SDS011;69817;44.694;37.774;2023-05-07T04:04:04;11.23;;;2.50;;
79017;SDS011;69817;44.694;37.774;2023-05-07T04:05:08;14.65;;;2.60;;
79017;SDS011;69817;44.694;37.774;2023-05-07T04:06:15;11.05;;;2.60;;
79017;SDS011;69817;44.694;37.774;2023-05-07T04:07:20;10.75;;;2.50;;
79017;SDS011;69817;44.694;37.774;2023-05-07T04:08:24;12.20;;;2.42;;
79017;SDS011;69817;44.694;37.774;2023-05-07T04:09:28;9.65;;;2.63;;
79017;SDS011;69817;44.694;37.774;2023-05-07T04:10:31;10.77;;;2.50;;
79017;SDS011;69817;44.694;37.774;2023-05-07T04:11:37;17.15;;;2.72;;
79017;SDS011;69817;44.694;37.774;2023-05-07T04:12:43;11.32;;;2.30;;
79017;SDS011;69817;44.694;37.774;2023-05-07T04:13:50;9.57;;;2.72;;
79017;SDS011;69817;44.694;37.774;2023-05-07T04:14:55;10.60;;;2.28;;
79017;SDS011;69817;44.694;37.774;2023-05-07T04:15:58;10.88;;;2.70;;
79017;SDS011;69817;44.694;37.774;2023-05-07T04:18:04;10.45;;;2.72;;
79017;SDS011;69817;44.694;37.774;2023-05-07T04:19:06;9.80;;;2.90;;
79017;SDS011;69817;44.694;37.774;2023-05-07T04:20:10;11.27;;;2.65;;
79017;SDS011;69817;44.694;37.774;2023-05-07T04:21:16;8.93;;;2.20;;
79017;SDS011;69817;44.694;37.774;2023-05-07T04:22:19;5.90;;;2.20;;
79017;SDS011;69817;44.694;37.774;2023-05-07T04:23:21;8.88;;;2.53;;
79017;SDS011;69817;44.694;37.774;2023-05-07T04:24:23;9.73;;;2.20;;
79017;SDS011;69817;44.694;37.774;2023-05-07T04:25:26;8.43;;;2.17;;
79017;SDS011;69817;44.694;37.774;2023-05-07T04:26:32;9.32;;;2.42;;
79017;SDS011;69817;44.694;37.774;2023-05-07T04:27:33;12.55;;;2.70;;
79017;SDS011;69817;44.694;37.774;2023-05-07T04:28:36;9.63;;;2.50;;
79017;SDS011;69817;44.694;37.774;2023-05-07T04:29:38;9.93;;;2.60;;
79017;SDS011;69817;44.694;37.774;2023-05-07T04:30:45;9.10;;;2.30;;
79017;SDS011;69817;44.694;37.774;2023-05-07T04:31:47;9.00;;;2.42;;
79017;SDS011;69817;44.694;37.774;2023-05-07T04:32:49;7.75;;;2.38;;
79017;SDS011;69817;44.694;37.774;2023-05-07T04:33:51;8.18;;;2.30;;
79017;SDS011;69817;44.694;37.774;2023-05-07T04:34:53;8.25;;;2.60;;
79017;SDS011;69817;44.694;37.774;2023-05-07T04:35:55;7.72;;;2.50;;
79017;SDS011;69817;44.694;37.774;2023-05-07T04:36:58;7.90;;;2.40;;
79017;SDS011;69817;44.694;37.774;2023-05-07T04:38:00;10.63;;;2.70;;
79017;SDS011;69817;44.694;37.774;2023-05-07T04:39:04;9.02;;;2.60;;
79017;SDS011;69817;44.694;37.774;2023-05-07T04:40:06;16.75;;;2.83;;
79017;SDS011;69817;44.694;37.774;2023-05-07T04:41:09;12.07;;;2.70;;
79017;SDS011;69817;44.694;37.774;2023-05-07T04:42:15;12.00;;;2.85;;
79017;SDS011;69817;44.694;37.774;2023-05-07T04:43:18;11.70;;;3.08;;
79017;SDS011;69817;44.694;37.774;2023-05-07T04:44:24;13.50;;;3.55;;
79017;SDS011;69817;44.694;37.774;2023-05-07T04:45:26;10.32;;;3.03;;
79017;SDS011;69817;44.694;37.774;2023-05-07T04:46:30;7.50;;;3.10;;
79017;SDS011;69817;44.694;37.774;2023-05-07T04:47:32;11.40;;;3.40;;
79017;SDS011;69817;44.694;37.774;2023-05-07T04:48:36;13.75;;;3.60;;
79017;SDS011;69817;44.694;37.774;2023-05-07T04:49:40;8.05;;;3.38;;
79017;SDS011;69817;44.694;37.774;2023-05-07T04:50:46;14.35;;;3.75;;
79017;SDS011;69817;44.694;37.774;2023-05-07T04:51:49;9.52;;;3.00;;
79017;SDS011;69817;44.694;37.774;2023-05-07T04:52:54;10.55;;;3.67;;
79017;SDS011;69817;44.694;37.774;2023-05-07T04:53:58;14.30;;;3.47;;
79017;SDS011;69817;44.694;37.774;2023-05-07T04:55:03;13.90;;;3.40;;
79017;SDS011;69817;44.694;37.774;2023-05-07T04:56:10;8.82;;;3.30;;
79017;SDS011;69817;44.694;37.774;2023-05-07T04:57:16;9.68;;;3.35;;
79017;SDS011;69817;44.694;37.774;2023-05-07T04:58:19;12.00;;;3.70;;
79017;SDS011;69817;44.694;37.774;2023-05-07T04:59:22;8.68;;;3.88;;
79017;SDS011;69817;44.694;37.774;2023-05-07T05:00:24;13.27;;;3.38;;
79017;SDS011;69817;44.694;37.774;2023-05-07T05:01:28;8.68;;;3.35;;
79017;SDS011;69817;44.694;37.774;2023-05-07T05:02:30;9.90;;;3.17;;
79017;SDS011;69817;44.694;37.774;2023-05-07T05:03:33;11.85;;;3.38;;
79017;SDS011;69817;44.694;37.774;2023-05-07T05:04:35;11.07;;;3.30;;
79017;SDS011;69817;44.694;37.774;2023-05-07T05:05:37;13.05;;;3.38;;
79017;SDS011;69817;44.694;37.774;2023-05-07T05:06:39;10.65;;;3.90;;
79017;SDS011;69817;44.694;37.774;2023-05-07T05:07:42;11.35;;;3.05;;
79017;SDS011;69817;44.694;37.774;2023-05-07T05:08:44;9.35;;;3.42;;
79017;SDS011;69817;44.694;37.774;2023-05-07T05:09:46;9.35;;;3.63;;
79017;SDS011;69817;44.694;37.774;2023-05-07T05:10:48;9.38;;;3.55;;
79017;SDS011;69817;44.694;37.774;2023-05-07T05:12:53;7.72;;;2.83;;
79017;SDS011;69817;44.694;37.774;2023-05-07T05:13:56;12.93;;;3.13;;
79017;SDS011;69817;44.694;37.774;2023-05-07T05:14:58;6.82;;;3.00;;
79017;SDS011;69817;44.694;37.774;2023-05-07T05:16:00;9.35;;;2.92;;
79017;SDS011;69817;44.694;37.774;2023-05-07T05:17:04;8.75;;;3.13;;
79017;SDS011;69817;44.694;37.774;2023-05-07T05:18:08;9.82;;;2.70;;
79017;SDS011;69817;44.694;37.774;2023-05-07T05:19:11;10.82;;;3.63;;
79017;SDS011;69817;44.694;37.774;2023-05-07T05:20:14;9.55;;;2.70;;
79017;SDS011;69817;44.694;37.774;2023-05-07T05:21:16;13.82;;;3.20;;
79017;SDS011;69817;44.694;37.774;2023-05-07T05:22:21;12.85;;;3.65;;
79017;SDS011;69817;44.694;37.774;2023-05-07T05:23:23;12.80;;;2.95;;
79017;SDS011;69817;44.694;37.774;2023-05-07T05:24:25;13.35;;;3.80;;
79017;SDS011;69817;44.694;37.774;2023-05-07T05:25:27;9.52;;;3.13;;
79017;SDS011;69817;44.694;37.774;2023-05-07T05:26:30;10.18;;;3.35;;
79017;SDS011;69817;44.694;37.774;2023-05-07T05:27:32;10.10;;;2.92;;
79017;SDS011;69817;44.694;37.774;2023-05-07T05:28:34;10.55;;;3.38;;
79017;SDS011;69817;44.694;37.774;2023-05-07T05:30:39;9.60;;;2.90;;
79017;SDS011;69817;44.694;37.774;2023-05-07T05:31:42;14.60;;;3.78;;
79017;SDS011;69817;44.694;37.774;2023-05-07T05:32:44;6.50;;;2.60;;
79017;SDS011;69817;44.694;37.774;2023-05-07T05:33:49;9.85;;;2.65;;
79017;SDS011;69817;44.694;37.774;2023-05-07T05:34:51;7.35;;;3.15;;
79017;SDS011;69817;44.694;37.774;2023-05-07T05:35:53;8.98;;;3.05;;
79017;SDS011;69817;44.694;37.774;2023-05-07T05:36:55;6.60;;;2.72;;
79017;SDS011;69817;44.694;37.774;2023-05-07T05:37:58;8.02;;;2.90;;
79017;SDS011;69817;44.694;37.774;2023-05-07T05:39:00;6.70;;;3.10;;
79017;SDS011;69817;44.694;37.774;2023-05-07T05:40:02;6.57;;;2.67;;
79017;SDS011;69817;44.694;37.774;2023-05-07T05:41:06;8.63;;;3.17;;
79017;SDS011;69817;44.694;37.774;2023-05-07T05:42:07;7.30;;;3.00;;
79017;SDS011;69817;44.694;37.774;2023-05-07T05:43:10;10.32;;;2.95;;
79017;SDS011;69817;44.694;37.774;2023-05-07T05:44:13;8.45;;;2.65;;
79017;SDS011;69817;44.694;37.774;2023-05-07T05:45:16;8.93;;;2.67;;
79017;SDS011;69817;44.694;37.774;2023-05-07T05:46:20;8.10;;;3.17;;
79017;SDS011;69817;44.694;37.774;2023-05-07T05:47:24;8.45;;;2.70;;
79017;SDS011;69817;44.694;37.774;2023-05-07T05:48:29;7.97;;;3.13;;
79017;SDS011;69817;44.694;37.774;2023-05-07T05:49:31;8.73;;;3.20;;
79017;SDS011;69817;44.694;37.774;2023-05-07T05:50:34;10.40;;;2.60;;
79017;SDS011;69817;44.694;37.774;2023-05-07T05:51:40;6.97;;;2.90;;
79017;SDS011;69817;44.694;37.774;2023-05-07T05:52:42;8.23;;;3.03;;
79017;SDS011;69817;44.694;37.774;2023-05-07T05:53:45;8.10;;;2.63;;
79017;SDS011;69817;44.694;37.774;2023-05-07T05:54:46;6.95;;;2.90;;
79017;SDS011;69817;44.694;37.774;2023-05-07T05:55:49;7.03;;;2.80;;
79017;SDS011;69817;44.694;37.774;2023-05-07T05:57:53;9.82;;;3.00;;
79017;SDS011;69817;44.694;37.774;2023-05-07T05:58:56;10.48;;;2.63;;
79017;SDS011;69817;44.694;37.774;2023-05-07T05:59:58;11.70;;;2.63;;
79017;SDS011;69817;44.694;37.774;2023-05-07T06:01:00;6.80;;;2.50;;
79017;SDS011;69817;44.694;37.774;2023-05-07T06:02:04;7.68;;;2.33;;
79017;SDS011;69817;44.694;37.774;2023-05-07T06:03:08;8.10;;;2.67;;
79017;SDS011;69817;44.694;37.774;2023-05-07T06:04:11;9.80;;;2.58;;
79017;SDS011;69817;44.694;37.774;2023-05-07T06:05:13;6.53;;;2.50;;
79017;SDS011;69817;44.694;37.774;2023-05-07T06:06:16;6.65;;;2.58;;
79017;SDS011;69817;44.694;37.774;2023-05-07T06:07:19;5.80;;;2.63;;
79017;SDS011;69817;44.694;37.774;2023-05-07T06:08:21;9.85;;;3.25;;
79017;SDS011;69817;44.694;37.774;2023-05-07T06:09:23;6.45;;;3.10;;
79017;SDS011;69817;44.694;37.774;2023-05-07T06:10:25;12.60;;;3.20;;
79017;SDS011;69817;44.694;37.774;2023-05-07T06:11:29;22.38;;;3.50;;
79017;SDS011;69817;44.694;37.774;2023-05-07T06:12:31;21.20;;;3.42;;
79017;SDS011;69817;44.694;37.774;2023-05-07T06:13:33;13.23;;;3.22;;
79017;SDS011;69817;44.694;37.774;2023-05-07T06:14:34;19.77;;;3.33;;
79017;SDS011;69817;44.694;37.774;2023-05-07T06:15:37;11.43;;;3.30;;
79017;SDS011;69817;44.694;37.774;2023-05-07T06:16:44;11.55;;;3.75;;
79017;SDS011;69817;44.694;37.774;2023-05-07T06:17:46;14.60;;;3.20;;
79017;SDS011;69817;44.694;37.774;2023-05-07T06:18:48;12.32;;;3.08;;
79017;SDS011;69817;44.694;37.774;2023-05-07T06:19:51;11.23;;;3.45;;
79017;SDS011;69817;44.694;37.774;2023-05-07T06:20:54;10.20;;;3.40;;
79017;SDS011;69817;44.694;37.774;2023-05-07T06:22:03;9.60;;;3.45;;